Stacja Pogody
Warszawa Praga-Północ

Szerokość 52°15'43"N Długość 21°01'22"E Wysokość 110m n.p.m.


349 dzień roku.   Do końca pozostalo 16 dni.   Od wczoraj ubyło 1 min. i 11 sek. dnia.
Wschód Słońca 07:38 Górowanie Słońca 11:30 Zachód Słońca 15:23 strzelec
Data juliańska 2458103.554 Odległość Słońca 147230038 km Średn. kątowa Słońca 0,325°
Wschód Księżyca 04:20 Zachód Księżyca 14:14 Wiek Księżyca 27 dni Moon
Widoczność Księżyca 9,61% Odległość Księżyca 398575 km Średn. kątowa Księżyca 0,300°
Dzień krótszy od najdłuższego o: 09:03 Długość dnia 07:44 Imieniny Niny, Celiny, Waleriana



  Aktualizacja: 15-12-2017 01:17:36
TEMPERATURA
Aktualnie: 4.0°C →
Temperatura odczuwalna:-3.1°C
Punkt rosy-2.8°C
WIATR
Średnia prędkość: 24.5km/h ↑
Prędkość w podmuchach:31.7km/h
Przepływ w ciągu doby:391.4km
Kierunek wiatru:135°
CIŚNIENIE
Względne:996.8hPa
Trend ciśnienia:powolny spadek
WILGOTNOŚĆ
Wilgotność względna: 61% ↓
Podstawa chmur3199m
DESZCZ
W ostatniej godzinie: 0.0mm
Dzisiaj:0.0mm
W tym miesiącu:23.1mm
METAR
EPWA 150000Z 19008KT CAVOK 02/M02 Q0996 NOSIG
Ostrzeżenia burzowe
Prognoza 12-to godzinna (prawdopodobieństwo 75%):   Opady, bardzo niestabilna pogoda prognoza





a  a a